Time;durP1;ratioP1;P1;durP2;ratioP2;P2;SDS_P1;SDS_P2;PMS_P1;PMS_P2;Temp;Humidity;BMP_temperature;BMP_pressure;BME280_temperature;BME280_humidity;BME280_pressure;Samples;Min_cycle;Max_cycle;Signal;HPM_P1;HPM_P2
2022/11/24 00:00:30;;;;;;;13.85;8.32;;;3.10;99.90;;;;;;5070642;28;20045;-49
2022/11/24 00:02:57;;;;;;;8.85;5.20;;;3.10;99.90;;;;;;5069408;28;20617;-47
2022/11/24 00:05:24;;;;;;;14.45;7.47;;;3.10;99.90;;;;;;5066371;28;20119;-47
2022/11/24 00:07:50;;;;;;;15.75;8.00;;;3.10;99.90;;;;;;5070831;28;20048;-47
2022/11/24 00:10:17;;;;;;;14.50;7.60;;;3.10;99.90;;;;;;5070958;28;20047;-47
2022/11/24 00:12:44;;;;;;;13.60;7.65;;;3.20;99.90;;;;;;5068533;28;20067;-47
2022/11/24 00:15:11;;;;;;;12.63;7.82;;;3.20;99.90;;;;;;5070651;28;20460;-46
2022/11/24 00:17:37;;;;;;;11.18;6.63;;;3.20;99.90;;;;;;5070408;28;20119;-47
2022/11/24 00:20:05;;;;;;;11.75;7.35;;;3.30;99.90;;;;;;5070925;28;20067;-48
2022/11/24 00:22:31;;;;;;;;;;;3.30;99.90;;;;;;5073334;28;20496;-47
2022/11/24 00:24:58;;;;;;;11.55;6.90;;;3.30;99.90;;;;;;5074791;28;19967;-47
2022/11/24 00:27:25;;;;;;;12.88;7.10;;;3.30;99.90;;;;;;5074406;28;20562;-48
2022/11/24 00:29:51;;;;;;;12.05;6.70;;;3.40;99.90;;;;;;5072831;28;20071;-47
2022/11/24 00:32:18;;;;;;;11.45;6.38;;;3.40;99.90;;;;;;5074512;28;20086;-47
2022/11/24 00:34:46;;;;;;;16.15;7.88;;;3.40;99.90;;;;;;5074322;28;20297;-47
2022/11/24 00:37:12;;;;;;;15.13;7.72;;;3.40;99.90;;;;;;5074774;28;20079;-47
2022/11/24 00:39:39;;;;;;;16.58;8.65;;;3.40;99.90;;;;;;5071146;28;20638;-46
2022/11/24 00:42:06;;;;;;;12.45;7.28;;;3.40;99.90;;;;;;5073998;28;20048;-47
2022/11/24 00:44:33;;;;;;;14.98;8.55;;;3.40;99.90;;;;;;5074690;28;20421;-47
2022/11/24 00:47:00;;;;;;;15.88;8.02;;;3.40;99.90;;;;;;5071495;28;20040;-46
2022/11/24 00:49:26;;;;;;;15.13;8.10;;;3.40;99.90;;;;;;5074574;28;20044;-48
2022/11/24 00:51:53;;;;;;;16.58;8.60;;;3.40;99.90;;;;;;5070442;28;20115;-47
2022/11/24 00:54:20;;;;;;;14.73;7.97;;;3.40;99.90;;;;;;5068903;28;20068;-47
2022/11/24 00:56:47;;;;;;;13.05;7.95;;;3.40;99.90;;;;;;5072456;28;20045;-48
2022/11/24 00:59:13;;;;;;;15.85;8.50;;;3.40;99.90;;;;;;5073448;28;20484;-47
2022/11/24 01:01:41;;;;;;;14.65;8.27;;;3.40;99.90;;;;;;5071645;28;20067;-46
2022/11/24 01:04:08;;;;;;;14.77;9.15;;;3.40;99.90;;;;;;5073634;28;20048;-47
2022/11/24 01:06:35;;;;;;;15.30;9.05;;;3.40;99.90;;;;;;5073807;28;20453;-47
2022/11/24 01:09:03;;;;;;;16.02;8.57;;;3.30;99.90;;;;;;5068071;28;20072;-46
2022/11/24 01:12:00;;;;;;;20.48;8.32;;;3.30;99.90;;;;;;5069974;28;20120;-47
2022/11/24 01:14:23;;;;;;;14.90;8.23;;;3.30;99.90;;;;;;5054543;28;20033;-47
2022/11/24 01:16:50;;;;;;;16.02;8.23;;;3.20;99.90;;;;;;5060514;28;20053;-47
2022/11/24 01:19:17;;;;;;;14.35;7.93;;;3.20;99.90;;;;;;5073776;28;20064;-46
2022/11/24 01:21:44;;;;;;;;;;;3.30;99.90;;;;;;5073850;28;20544;-47
2022/11/24 01:24:11;;;;;;;16.05;8.52;;;3.30;99.90;;;;;;5054719;28;20407;-46
2022/11/24 01:26:38;;;;;;;14.48;7.88;;;3.30;99.90;;;;;;5073395;28;20025;-47
2022/11/24 01:29:05;;;;;;;;;;;3.30;99.90;;;;;;5073941;28;20564;-47
2022/11/24 01:31:32;;;;;;;14.18;7.90;;;3.30;99.90;;;;;;5055682;28;20444;-47
2022/11/24 01:33:58;;;;;;;12.30;7.05;;;3.20;99.90;;;;;;5068731;28;20036;-47
2022/11/24 01:36:25;;;;;;;14.77;8.65;;;3.20;99.90;;;;;;5067747;28;20431;-47
2022/11/24 01:38:52;;;;;;;14.48;8.63;;;3.20;99.90;;;;;;5072690;28;20147;-47
2022/11/24 01:41:24;;;;;;;12.13;6.63;;;3.20;99.90;;;;;;5072354;28;20148;-47
2022/11/24 01:43:52;;;;;;;14.68;8.02;;;3.20;99.90;;;;;;5070082;28;20049;-47
2022/11/24 01:46:34;;;;;;;14.77;7.78;;;3.30;99.90;;;;;;5073213;28;20044;-46
2022/11/24 01:49:07;;;;;;;12.10;7.72;;;3.30;99.90;;;;;;5062751;28;20102;-47
2022/11/24 01:51:42;;;;;;;12.38;7.88;;;3.30;99.90;;;;;;5066015;28;20073;-47
2022/11/24 01:54:18;;;;;;;16.00;8.40;;;3.30;99.90;;;;;;5087491;22;20500;-47
2022/11/24 01:56:50;;;;;;;14.70;7.82;;;3.30;99.90;;;;;;5059876;28;20119;-48
2022/11/24 01:59:19;;;;;;;14.07;8.02;;;3.30;99.90;;;;;;5065385;28;20040;-48
2022/11/24 02:01:49;;;;;;;14.52;8.50;;;3.30;99.90;;;;;;5073152;28;20041;-48
2022/11/24 02:04:22;;;;;;;13.27;7.50;;;3.30;99.90;;;;;;5058938;28;20041;-48
2022/11/24 02:06:50;;;;;;;15.02;8.55;;;3.40;99.90;;;;;;5040334;28;20081;-49
2022/11/24 02:09:44;;;;;;;15.05;7.97;;;3.30;99.90;;;;;;5035496;28;20099;-50
2022/11/24 02:12:11;;;;;;;15.07;8.57;;;3.30;99.90;;;;;;5032268;28;20037;-48
2022/11/24 02:14:40;;;;;;;12.32;6.97;;;3.20;99.90;;;;;;5033408;28;20425;-50
2022/11/24 02:17:07;;;;;;;11.85;6.55;;;3.30;99.90;;;;;;5045742;28;20087;-49
2022/11/24 02:19:40;;;;;;;8.25;4.63;;;3.20;99.90;;;;;;5044681;28;20040;-48
2022/11/24 02:22:14;;;;;;;11.98;6.07;;;3.20;99.90;;;;;;5052864;28;20047;-48
2022/11/24 02:24:53;;;;;;;12.75;7.43;;;3.20;99.90;;;;;;5057864;28;20072;-48
2022/11/24 02:27:20;;;;;;;12.55;7.07;;;3.20;99.90;;;;;;5044252;28;20120;-48
2022/11/24 02:29:47;;;;;;;13.77;7.25;;;3.30;99.90;;;;;;5034153;28;20038;-49
2022/11/24 02:32:15;;;;;;;13.45;6.65;;;3.30;99.90;;;;;;5032621;28;20069;-48
2022/11/24 02:34:41;;;;;;;13.02;6.55;;;3.30;99.90;;;;;;5032562;28;20068;-49
2022/11/24 02:37:08;;;;;;;13.43;7.45;;;3.30;99.90;;;;;;5036506;28;20072;-48
2022/11/24 02:39:35;;;;;;;12.80;7.28;;;3.20;99.90;;;;;;5049932;28;20072;-48
2022/11/24 02:42:11;;;;;;;13.77;7.55;;;3.20;99.90;;;;;;5052505;28;20045;-49
2022/11/24 02:44:44;;;;;;;11.32;6.80;;;3.30;99.90;;;;;;5052112;28;20041;-48
2022/11/24 02:47:12;;;;;;;11.77;7.50;;;3.30;99.90;;;;;;5040947;28;20037;-48
2022/11/24 02:49:39;;;;;;;14.63;6.80;;;2.90;99.90;;;;;;5032267;28;20083;-48
2022/11/24 02:52:06;;;;;;;;;;;3.20;99.90;;;;;;5032508;28;20224;-48
2022/11/24 02:54:33;;;;;;;12.52;7.03;;;3.30;99.90;;;;;;5045165;28;19942;-49
2022/11/24 02:57:00;;;;;;;13.13;7.50;;;3.30;99.90;;;;;;5032530;28;20105;-49
2022/11/24 02:59:27;;;;;;;12.85;7.63;;;3.40;99.90;;;;;;5031934;28;20073;-49
2022/11/24 03:01:53;;;;;;;12.35;7.47;;;3.40;99.90;;;;;;5032644;28;20045;-48
2022/11/24 03:04:20;;;;;;;13.75;8.18;;;3.40;99.90;;;;;;5040282;28;20041;-49
2022/11/24 03:06:47;;;;;;;10.13;5.72;;;3.30;99.90;;;;;;5033068;28;20048;-48
2022/11/24 03:09:14;;;;;;;15.38;8.50;;;3.30;99.90;;;;;;5052446;28;20069;-49
2022/11/24 03:11:41;;;;;;;10.23;6.50;;;3.40;99.90;;;;;;5047036;28;20040;-48
2022/11/24 03:14:08;;;;;;;14.05;8.07;;;3.30;99.90;;;;;;5031935;28;20069;-48
2022/11/24 03:16:34;;;;;;;16.95;8.68;;;3.30;99.90;;;;;;5032235;28;20069;-48
2022/11/24 03:19:02;;;;;;;15.63;8.57;;;3.30;99.90;;;;;;5040678;28;20068;-49
2022/11/24 03:21:28;;;;;;;;;;;3.30;99.90;;;;;;5043311;28;20037;-48
2022/11/24 03:23:55;;;;;;;15.85;8.32;;;3.30;99.90;;;;;;5031998;28;20007;-48
2022/11/24 03:26:24;;;;;;;12.88;7.88;;;3.30;99.90;;;;;;5031697;28;20048;-48
2022/11/24 03:28:54;;;;;;;13.70;8.30;;;3.30;99.90;;;;;;5032022;28;20045;-48
2022/11/24 03:31:22;;;;;;;12.45;7.53;;;3.30;99.90;;;;;;5041472;28;20045;-48
2022/11/24 03:33:49;;;;;;;15.55;9.30;;;3.30;99.90;;;;;;5043331;28;20049;-49
2022/11/24 03:36:16;;;;;;;11.25;6.20;;;3.30;99.90;;;;;;5052497;28;20103;-48
2022/11/24 03:38:43;;;;;;;15.60;9.05;;;3.30;99.90;;;;;;5051610;28;20067;-49
2022/11/24 03:41:10;;;;;;;15.48;8.43;;;3.30;99.90;;;;;;5050632;28;20060;-48
2022/11/24 03:43:36;;;;;;;13.38;7.32;;;3.40;99.90;;;;;;5050876;28;20072;-49
2022/11/24 03:46:10;;;;;;;13.30;7.90;;;3.40;99.90;;;;;;5031677;28;20065;-49
2022/11/24 03:48:37;;;;;;;16.35;7.93;;;3.40;99.90;;;;;;5031369;28;20049;-48
2022/11/24 03:51:04;;;;;;;15.70;8.20;;;3.50;99.90;;;;;;5035041;28;20080;-48
2022/11/24 03:53:32;;;;;;;15.60;9.05;;;3.50;99.90;;;;;;5046231;28;20065;-49
2022/11/24 03:55:59;;;;;;;18.33;8.35;;;3.50;99.90;;;;;;5039742;28;20451;-49
2022/11/24 03:58:28;;;;;;;18.00;9.05;;;3.50;99.90;;;;;;5031506;28;20111;-48
2022/11/24 04:00:55;;;;;;;;;;;3.50;99.90;;;;;;5036885;28;20042;-48
2022/11/24 04:03:22;;;;;;;14.13;8.32;;;3.50;99.90;;;;;;5031176;28;20285;-48
2022/11/24 04:05:49;;;;;;;;;;;3.50;99.90;;;;;;5030535;28;20042;-48
2022/11/24 04:08:16;;;;;;;12.32;7.28;;;3.50;99.90;;;;;;5031696;28;19932;-48
2022/11/24 04:10:43;;;;;;;10.77;6.70;;;3.50;99.90;;;;;;5023554;28;20048;-49
2022/11/24 04:13:13;;;;;;;11.85;7.10;;;3.50;99.90;;;;;;5031062;28;20046;-48
2022/11/24 04:15:41;;;;;;;11.07;6.82;;;3.50;99.90;;;;;;5031451;28;20084;-49
2022/11/24 04:18:09;;;;;;;10.52;6.75;;;3.50;99.90;;;;;;5049440;28;20072;-48
2022/11/24 04:20:36;;;;;;;12.52;6.22;;;3.50;99.90;;;;;;5031112;28;20041;-48
2022/11/24 04:23:02;;;;;;;11.88;4.85;;;3.50;99.90;;;;;;5030693;28;20568;-48
2022/11/24 04:25:29;;;;;;;9.85;4.80;;;3.50;99.90;;;;;;5031030;28;20124;-48
2022/11/24 04:27:56;;;;;;;10.55;6.07;;;3.50;99.90;;;;;;5055156;28;20464;-48
2022/11/24 04:30:25;;;;;;;7.88;5.18;;;3.50;99.90;;;;;;5046569;28;20148;-50
2022/11/24 04:32:52;;;;;;;8.57;5.80;;;3.50;99.90;;;;;;5050510;28;20064;-48
2022/11/24 04:35:19;;;;;;;;;;;3.50;99.90;;;;;;5050087;28;20037;-48
2022/11/24 04:37:46;;;;;;;11.13;5.85;;;3.50;99.90;;;;;;5032493;28;19956;-48
2022/11/24 04:40:15;;;;;;;9.77;5.88;;;3.50;99.90;;;;;;5030705;28;20059;-48
2022/11/24 04:42:41;;;;;;;11.02;6.20;;;3.50;99.90;;;;;;5012672;28;20073;-48
2022/11/24 04:45:10;;;;;;;13.45;6.07;;;3.50;99.90;;;;;;5042440;28;20116;-48
2022/11/24 04:47:37;;;;;;;11.48;6.80;;;3.50;99.90;;;;;;5030807;28;20524;-49
2022/11/24 04:50:06;;;;;;;9.48;6.03;;;3.50;99.90;;;;;;5030712;28;20115;-48
2022/11/24 04:52:33;;;;;;;9.65;5.10;;;3.50;99.90;;;;;;5031019;28;20129;-49
2022/11/24 04:55:00;;;;;;;11.52;5.60;;;3.50;99.90;;;;;;5025489;28;20084;-48
2022/11/24 04:57:27;;;;;;;12.57;6.90;;;3.40;99.90;;;;;;5049765;28;20041;-49
2022/11/24 04:59:54;;;;;;;20.90;9.25;;;3.50;99.90;;;;;;5050885;28;20099;-48
2022/11/24 05:02:22;;;;;;;15.35;6.43;;;3.40;99.90;;;;;;5043714;28;20037;-50
2022/11/24 05:04:48;;;;;;;10.35;5.85;;;3.40;99.90;;;;;;5030676;28;20080;-48
2022/11/24 05:07:17;;;;;;;9.15;4.90;;;3.40;99.90;;;;;;5030584;28;20073;-48
2022/11/24 05:12:31;;;;;;;12.32;6.13;;;3.30;99.90;;;;;;5033383;28;20038;-49
2022/11/24 05:15:02;;;;;;;7.50;4.43;;;3.40;99.90;;;;;;5037606;28;20564;-49
2022/11/24 05:17:31;;;;;;;10.63;6.15;;;3.30;99.90;;;;;;5049101;28;20056;-48
2022/11/24 05:19:58;;;;;;;10.63;5.50;;;3.30;99.90;;;;;;5042581;28;20451;-48
2022/11/24 05:22:26;;;;;;;7.10;4.30;;;3.30;99.90;;;;;;5049272;28;20544;-49
2022/11/24 05:24:53;;;;;;;9.60;5.60;;;3.30;99.90;;;;;;5043658;28;20071;-48
2022/11/24 05:27:20;;;;;;;8.90;5.28;;;3.20;99.90;;;;;;5043271;28;20528;-48
2022/11/24 05:29:47;;;;;;;10.30;5.72;;;3.20;99.90;;;;;;5056676;28;20124;-49
2022/11/24 05:32:14;;;;;;;7.47;4.10;;;3.30;99.90;;;;;;5033306;28;20038;-48
2022/11/24 05:34:40;;;;;;;8.43;5.15;;;3.30;99.90;;;;;;5033201;28;20095;-48
2022/11/24 05:37:07;;;;;;;6.00;3.92;;;3.30;99.90;;;;;;5040325;28;20497;-48
2022/11/24 05:39:35;;;;;;;8.05;4.47;;;3.40;99.90;;;;;;5044546;28;20076;-49
2022/11/24 05:42:39;;;;;;;9.65;4.20;;;3.40;99.90;;;;;;5033002;28;20549;-47
2022/11/24 05:44:51;;;;;;;7.88;4.15;;;3.40;99.90;;;;;;5032896;28;20446;-48
2022/11/24 05:47:18;;;;;;;9.30;5.50;;;3.40;99.90;;;;;;5018545;28;20045;-49
2022/11/24 05:49:45;;;;;;;9.95;5.45;;;3.40;99.90;;;;;;5050576;28;20128;-48
2022/11/24 05:52:12;;;;;;;9.50;4.90;;;3.40;99.90;;;;;;5033352;28;20485;-48
2022/11/24 05:54:39;;;;;;;10.70;5.70;;;3.30;99.90;;;;;;5043473;28;20068;-49
2022/11/24 05:57:05;;;;;;;13.48;7.38;;;3.30;99.90;;;;;;5038574;28;20037;-48
2022/11/24 05:59:32;;;;;;;9.02;5.38;;;3.30;99.90;;;;;;5032863;28;20084;-48
2022/11/24 06:01:59;;;;;;;11.93;5.65;;;3.30;99.90;;;;;;5034892;28;20099;-48
2022/11/24 06:04:26;;;;;;;8.82;4.93;;;3.30;99.90;;;;;;5033180;28;20073;-48
2022/11/24 06:06:53;;;;;;;8.63;4.97;;;3.30;99.90;;;;;;5032250;28;20092;-48
2022/11/24 06:09:20;;;;;;;6.22;3.83;;;3.40;99.90;;;;;;5041506;28;20098;-48
2022/11/24 06:11:47;;;;;;;14.32;7.68;;;3.40;99.90;;;;;;5038711;28;20041;-48
2022/11/24 06:14:14;;;;;;;14.30;7.00;;;3.40;99.90;;;;;;5033074;28;20049;-48
2022/11/24 06:16:41;;;;;;;9.48;5.32;;;3.50;99.90;;;;;;5033425;28;20038;-48
2022/11/24 06:19:09;;;;;;;8.50;4.75;;;3.50;99.90;;;;;;5044200;28;20139;-48
2022/11/24 06:21:36;;;;;;;8.77;4.10;;;3.60;99.90;;;;;;5046676;28;20039;-47
2022/11/24 06:24:04;;;;;;;12.05;5.88;;;3.70;99.90;;;;;;5033352;28;20367;-48
2022/11/24 06:26:30;;;;;;;12.25;7.13;;;3.60;99.90;;;;;;5032831;28;20146;-50
2022/11/24 06:28:57;;;;;;;13.55;7.25;;;3.50;99.90;;;;;;5033273;28;20057;-48
2022/11/24 06:31:24;;;;;;;16.02;7.55;;;3.50;99.90;;;;;;5039035;28;20490;-49
2022/11/24 06:33:52;;;;;;;15.55;5.63;;;3.40;99.90;;;;;;5049884;28;20553;-48
2022/11/24 06:36:18;;;;;;;;;;;3.40;99.90;;;;;;5047394;28;20116;-48
2022/11/24 06:38:45;;;;;;;14.50;8.05;;;3.40;99.90;;;;;;5043166;28;19932;-48
2022/11/24 06:41:14;;;;;;;13.23;7.45;;;3.40;99.90;;;;;;5031605;28;20076;-47
2022/11/24 06:43:41;;;;;;;13.82;6.38;;;3.40;99.90;;;;;;5030782;28;20094;-48
2022/11/24 06:46:07;;;;;;;8.02;3.90;;;3.40;99.90;;;;;;5040407;28;20069;-48
2022/11/24 06:48:35;;;;;;;8.55;4.28;;;3.40;99.90;;;;;;5041580;28;20408;-48
2022/11/24 06:51:04;;;;;;;9.98;3.88;;;3.50;99.90;;;;;;5031606;28;20065;-48
2022/11/24 06:53:38;;;;;;;8.73;3.90;;;3.50;99.90;;;;;;5031291;28;20128;-48
2022/11/24 06:56:10;;;;;;;15.52;8.60;;;3.50;99.90;;;;;;5038307;28;20494;-49
2022/11/24 06:58:47;;;;;;;20.60;9.30;;;3.50;99.90;;;;;;5046074;28;20065;-49
2022/11/24 07:01:16;;;;;;;19.35;10.23;;;3.50;99.90;;;;;;5040414;28;20037;-48
2022/11/24 07:03:44;;;;;;;17.77;9.73;;;3.50;99.90;;;;;;5031898;28;20052;-48
2022/11/24 07:06:10;;;;;;;;;;;3.50;99.90;;;;;;5038603;28;20076;-48
2022/11/24 07:08:37;;;;;;;18.48;10.27;;;3.50;99.90;;;;;;5031536;28;20387;-49
2022/11/24 07:11:09;;;;;;;19.15;10.40;;;3.50;99.90;;;;;;5051325;28;20049;-48
2022/11/24 07:13:35;;;;;;;16.60;9.73;;;3.50;99.90;;;;;;5051346;28;20091;-50
2022/11/24 07:16:14;;;;;;;10.38;6.85;;;3.60;99.90;;;;;;5056122;28;20045;-51
2022/11/24 07:18:42;;;;;;;22.42;11.35;;;3.60;99.90;;;;;;5042729;28;20103;-49
2022/11/24 07:21:09;;;;;;;25.20;13.13;;;3.50;99.90;;;;;;5031760;28;20076;-48
2022/11/24 07:23:37;;;;;;;25.38;12.13;;;3.60;99.90;;;;;;5031109;28;20651;-48
2022/11/24 07:26:05;;;;;;;26.52;13.73;;;3.60;99.90;;;;;;5032193;28;20037;-48
2022/11/24 07:28:33;;;;;;;24.20;12.60;;;3.60;99.90;;;;;;5031891;28;20052;-49
2022/11/24 07:31:14;;;;;;;;;;;3.70;99.90;;;;;;5043824;28;20041;-48
2022/11/24 07:33:41;;;;;;;38.83;18.85;;;3.80;99.90;;;;;;5031211;28;19929;-48
2022/11/24 07:36:08;;;;;;;26.45;13.68;;;3.70;99.90;;;;;;5031746;28;20647;-50
2022/11/24 07:38:35;;;;;;;26.52;14.30;;;3.70;99.90;;;;;;5035580;28;20549;-48
2022/11/24 07:41:04;;;;;;;16.88;10.50;;;3.80;99.90;;;;;;5031819;28;20490;-48
2022/11/24 07:43:32;;;;;;;28.35;14.57;;;3.70;99.90;;;;;;5032115;28;20049;-48
2022/11/24 07:45:59;;;;;;;20.70;11.70;;;3.70;99.90;;;;;;5031701;28;20068;-48
2022/11/24 07:48:26;;;;;;;28.95;15.40;;;3.80;99.90;;;;;;5030730;28;20050;-48
2022/11/24 07:50:53;;;;;;;23.90;14.57;;;3.80;99.90;;;;;;5031546;28;20053;-49
2022/11/24 07:53:22;;;;;;;22.63;12.90;;;3.90;99.90;;;;;;5051313;22;20583;-46
2022/11/24 07:55:53;;;;;;;19.02;11.02;;;3.90;99.90;;;;;;5036950;28;20080;-46
2022/11/24 07:58:20;;;;;;;19.75;11.23;;;4.00;99.90;;;;;;5031024;28;20490;-47
2022/11/24 08:00:47;;;;;;;18.58;10.07;;;4.00;99.90;;;;;;5031225;28;20443;-47
2022/11/24 08:03:14;;;;;;;18.52;10.45;;;4.00;99.90;;;;;;5029618;28;20092;-47
2022/11/24 08:05:41;;;;;;;23.33;12.18;;;4.00;99.90;;;;;;4994182;28;20117;-46
2022/11/24 08:08:32;;;;;;;22.27;11.55;;;3.90;99.90;;;;;;5011224;28;20498;-46
2022/11/24 08:11:03;;;;;;;19.08;10.68;;;3.90;99.90;;;;;;5010837;28;20041;-48
2022/11/24 08:13:30;;;;;;;17.60;9.90;;;3.80;99.90;;;;;;5011006;28;20084;-47
2022/11/24 08:15:57;;;;;;;16.30;8.80;;;3.90;99.90;;;;;;5011132;28;20037;-46
2022/11/24 08:18:24;;;;;;;24.98;11.65;;;4.00;99.90;;;;;;5011305;28;20097;-46
2022/11/24 08:20:51;;;;;;;23.55;12.93;;;4.00;99.90;;;;;;5013716;28;20073;-46
2022/11/24 08:23:18;;;;;;;20.50;11.68;;;4.10;99.90;;;;;;5010873;28;20510;-46
2022/11/24 08:25:44;;;;;;;20.42;10.98;;;4.20;99.90;;;;;;5010186;28;20070;-47
2022/11/24 08:28:11;;;;;;;21.50;11.50;;;4.30;99.90;;;;;;5011274;28;20551;-46
2022/11/24 08:30:38;;;;;;;21.85;11.23;;;4.30;99.90;;;;;;5013660;28;20042;-46
2022/11/24 08:33:04;;;;;;;20.13;10.93;;;4.30;99.90;;;;;;5011036;28;20073;-47
2022/11/24 08:35:35;;;;;;;19.30;11.20;;;4.30;99.90;;;;;;5011054;28;20498;-46
2022/11/24 08:38:03;;;;;;;24.40;11.35;;;4.40;99.90;;;;;;5010752;28;20491;-46
2022/11/24 08:40:31;;;;;;;23.73;12.80;;;4.60;99.90;;;;;;5011158;28;20030;-47
2022/11/24 08:42:58;;;;;;;;;;;4.70;99.90;;;;;;5013941;28;20104;-46
2022/11/24 08:45:26;;;;;;;19.17;10.85;;;4.80;99.90;;;;;;5015238;28;20351;-46
2022/11/24 08:47:56;;;;;;;19.52;10.20;;;5.00;99.90;;;;;;5021364;28;20042;-46
2022/11/24 08:50:24;;;;;;;16.17;9.50;;;5.10;99.90;;;;;;5030214;28;20073;-46
2022/11/24 08:52:52;;;;;;;;;;;5.10;99.90;;;;;;5034812;28;20041;-50
2022/11/24 08:55:19;;;;;;;15.50;8.65;;;5.30;99.90;;;;;;5016004;28;20020;-47
2022/11/24 08:57:46;;;;;;;15.63;8.50;;;5.30;99.90;;;;;;5026222;28;20049;-46
2022/11/24 09:00:13;;;;;;;18.63;8.90;;;5.50;99.90;;;;;;5032735;28;20125;-47
2022/11/24 09:02:41;;;;;;;14.55;8.77;;;5.80;99.90;;;;;;5031126;28;20137;-50
2022/11/24 09:05:08;;;;;;;17.58;10.05;;;6.00;99.90;;;;;;5032541;28;20445;-47
2022/11/24 09:07:55;;;;;;;16.70;9.23;;;6.20;99.90;;;;;;5014007;28;20034;-46
2022/11/24 09:10:21;;;;;;;21.70;9.30;;;6.50;99.90;;;;;;5028679;28;20046;-46
2022/11/24 09:12:50;;;;;;;16.80;9.02;;;6.40;99.90;;;;;;5033689;28;20045;-46
2022/11/24 09:15:19;;;;;;;16.45;8.82;;;6.40;99.90;;;;;;5026803;28;20073;-47
2022/11/24 09:17:45;;;;;;;13.25;8.55;;;6.30;99.90;;;;;;5017121;28;20125;-46
2022/11/24 09:20:12;;;;;;;11.57;6.72;;;6.40;99.90;;;;;;5027963;28;20080;-47
2022/11/24 09:22:40;;;;;;;14.20;8.48;;;6.60;99.90;;;;;;5027190;28;20576;-48
2022/11/24 09:25:07;;;;;;;12.60;7.70;;;6.80;99.90;;;;;;5024141;28;20058;-46
2022/11/24 09:27:35;;;;;;;;;;;6.80;99.90;;;;;;5031576;28;20091;-46
2022/11/24 09:30:02;;;;;;;11.30;7.60;;;6.60;99.90;;;;;;5033385;28;20300;-47
2022/11/24 09:32:29;;;;;;;13.00;7.38;;;6.50;99.90;;;;;;5024849;28;20064;-46
2022/11/24 09:34:56;;;;;;;12.18;7.63;;;6.40;99.90;;;;;;5022438;28;20073;-47
2022/11/24 09:37:23;;;;;;;15.57;8.00;;;6.40;99.90;;;;;;5026151;28;20045;-46
2022/11/24 09:39:55;;;;;;;18.15;9.13;;;6.20;99.90;;;;;;5013773;28;20044;-47
2022/11/24 09:43:01;;;;;;;17.10;8.80;;;6.20;99.90;;;;;;5018237;28;20105;-46
2022/11/24 09:45:52;;;;;;;16.40;8.82;;;6.20;99.90;;;;;;5028005;28;20038;-46
2022/11/24 09:48:45;;;;;;;24.50;12.18;;;6.20;99.90;;;;;;5033810;28;20164;-47
2022/11/24 09:51:13;;;;;;;13.73;8.60;;;6.40;99.90;;;;;;5027337;28;20379;-48
2022/11/24 09:53:50;;;;;;;13.70;9.02;;;6.20;99.90;;;;;;5021516;28;20046;-47
2022/11/24 09:56:21;;;;;;;13.85;8.60;;;6.40;99.90;;;;;;5033338;28;20049;-47
2022/11/24 09:59:12;;;;;;;13.98;8.80;;;6.40;99.90;;;;;;5033476;28;20065;-47
2022/11/24 10:01:41;;;;;;;17.70;10.00;;;6.40;99.90;;;;;;5032904;28;20049;-46
2022/11/24 10:04:21;;;;;;;15.25;9.00;;;6.10;99.90;;;;;;5016123;28;20072;-46
2022/11/24 10:07:07;;;;;;;20.38;10.68;;;6.20;99.90;;;;;;5032208;28;20042;-46
2022/11/24 10:10:08;;;;;;;21.33;10.60;;;6.30;99.90;;;;;;5013802;28;20049;-47
2022/11/24 10:13:00;;;;;;;16.48;10.27;;;6.30;99.90;;;;;;5013236;28;20050;-46
2022/11/24 10:16:06;;;;;;;14.90;9.98;;;6.30;99.90;;;;;;5012952;28;20146;-47
2022/11/24 10:18:36;;;;;;;16.60;9.98;;;6.30;99.90;;;;;;5008348;28;20054;-47
2022/11/24 10:21:16;;;;;;;15.38;9.18;;;6.30;99.90;;;;;;5012957;28;20096;-47
2022/11/24 10:24:07;;;;;;;17.02;10.68;;;6.20;99.90;;;;;;5038796;22;20044;-47
2022/11/24 10:26:35;;;;;;;18.02;10.35;;;6.30;99.90;;;;;;5065797;28;20064;-46
2022/11/24 10:29:20;;;;;;;18.60;10.07;;;6.40;99.90;;;;;;5073116;28;20079;-47
2022/11/24 10:31:49;;;;;;;13.80;9.20;;;6.60;99.90;;;;;;5071906;28;20083;-46
2022/11/24 10:34:28;;;;;;;15.85;9.02;;;6.90;99.90;;;;;;5047224;28;20092;-47
2022/11/24 10:37:10;;;;;;;15.20;9.35;;;7.00;99.90;;;;;;5035206;28;20068;-47
2022/11/24 10:39:53;;;;;;;16.65;9.40;;;7.00;99.90;;;;;;5045208;28;20084;-47
2022/11/24 10:42:30;;;;;;;;;;;6.80;99.90;;;;;;5052885;28;20117;-47
2022/11/24 10:45:11;;;;;;;14.15;8.75;;;6.80;99.90;;;;;;5048934;28;19921;-47
2022/11/24 10:47:39;;;;;;;23.98;9.63;;;6.90;99.90;;;;;;5045536;28;20538;-47
2022/11/24 10:50:25;;;;;;;17.27;10.02;;;7.20;99.90;;;;;;5041881;28;20033;-47
2022/11/24 10:53:06;;;;;;;13.77;8.65;;;7.20;99.90;;;;;;5032442;28;20107;-46
2022/11/24 10:55:57;;;;;;;15.13;8.88;;;7.20;99.90;;;;;;5032592;28;20049;-47
2022/11/24 10:58:25;;;;;;;18.52;10.10;;;7.40;99.90;;;;;;5045666;28;20045;-48
2022/11/24 11:00:54;;;;;;;16.92;9.88;;;7.50;99.90;;;;;;5042493;28;20103;-46
2022/11/24 11:03:24;;;;;;;13.20;8.63;;;7.60;99.90;;;;;;5040785;28;20053;-47
2022/11/24 11:06:10;;;;;;;15.70;9.15;;;7.60;99.90;;;;;;5039487;28;20038;-47
2022/11/24 11:08:37;;;;;;;17.65;9.45;;;7.50;99.90;;;;;;5043752;28;20037;-48
2022/11/24 11:11:21;;;;;;;20.40;10.20;;;7.40;99.90;;;;;;5031694;28;20103;-48
2022/11/24 11:13:54;;;;;;;16.48;8.38;;;7.10;99.90;;;;;;5044495;28;20037;-46
2022/11/24 11:16:39;;;;;;;17.60;9.15;;;6.90;99.90;;;;;;5044666;28;20069;-47
2022/11/24 11:19:34;;;;;;;14.23;7.90;;;6.90;99.90;;;;;;5047421;28;20421;-47
2022/11/24 11:22:30;;;;;;;13.00;7.80;;;6.80;99.90;;;;;;5040202;28;20112;-47
2022/11/24 11:25:42;;;;;;;15.20;8.02;;;6.70;99.90;;;;;;5050761;28;20060;-49
2022/11/24 11:28:26;;;;;;;16.15;8.48;;;6.80;99.90;;;;;;5042682;28;20064;-47
2022/11/24 11:31:02;;;;;;;15.13;7.63;;;6.80;99.90;;;;;;5045220;28;20045;-49
2022/11/24 11:33:56;;;;;;;12.57;7.85;;;6.80;99.90;;;;;;5049997;28;20064;-46
2022/11/24 11:36:50;;;;;;;12.88;7.38;;;6.80;99.90;;;;;;5041919;28;20033;-47
2022/11/24 11:39:25;;;;;;;12.20;7.43;;;6.70;99.90;;;;;;5040677;28;20041;-47
2022/11/24 11:42:14;;;;;;;15.60;8.18;;;6.50;99.90;;;;;;5039240;28;20029;-47
2022/11/24 11:45:17;;;;;;;14.32;8.27;;;6.40;99.90;;;;;;5043339;28;20046;-47
2022/11/24 11:48:04;;;;;;;12.75;7.88;;;6.20;99.90;;;;;;5043960;28;20041;-47
2022/11/24 11:51:01;;;;;;;12.05;7.30;;;6.10;99.90;;;;;;5045023;28;20080;-47
2022/11/24 11:54:25;;;;;;;18.85;9.55;;;6.10;99.90;;;;;;5045796;28;20048;-46
2022/11/24 11:57:06;;;;;;;16.27;8.60;;;6.00;99.90;;;;;;5047566;28;20099;-46
2022/11/24 11:59:33;;;;;;;18.38;8.68;;;6.00;99.90;;;;;;5043622;28;20069;-47
2022/11/24 12:02:36;;;;;;;17.33;8.13;;;6.00;99.90;;;;;;5049255;28;20102;-46
2022/11/24 12:05:41;;;;;;;17.85;9.82;;;6.00;99.90;;;;;;5048990;28;20044;-48
2022/11/24 12:08:34;;;;;;;20.65;11.50;;;6.10;99.90;;;;;;5046400;28;20103;-48
2022/11/24 12:11:34;;;;;;;16.10;9.30;;;6.10;99.90;;;;;;5022944;28;20127;-46
2022/11/24 12:14:00;;;;;;;20.58;10.60;;;5.90;99.90;;;;;;5051272;28;20057;-46
2022/11/24 12:16:44;;;;;;;19.13;11.23;;;5.90;99.90;;;;;;5041371;28;20445;-46
2022/11/24 12:19:28;;;;;;;19.48;10.80;;;5.90;99.90;;;;;;5044739;28;20509;-47
2022/11/24 12:22:20;;;;;;;20.30;11.20;;;5.90;99.90;;;;;;5050724;28;20108;-46
2022/11/24 12:25:01;;;;;;;19.17;11.15;;;5.90;99.90;;;;;;5043595;28;20068;-48
2022/11/24 12:27:59;;;;;;;23.90;12.18;;;5.90;99.90;;;;;;5040395;28;20072;-46
2022/11/24 12:30:36;;;;;;;17.85;10.65;;;6.00;99.90;;;;;;5050090;28;20069;-47
2022/11/24 12:33:28;;;;;;;17.98;9.77;;;6.00;99.90;;;;;;5048060;28;20052;-46
2022/11/24 12:36:22;;;;;;;21.35;10.27;;;6.10;99.90;;;;;;5051000;28;20068;-46
2022/11/24 12:39:05;;;;;;;18.10;9.82;;;6.20;99.90;;;;;;5030934;28;20092;-46
2022/11/24 12:42:08;;;;;;;17.40;10.68;;;6.20;99.90;;;;;;5029545;28;20041;-49
2022/11/24 12:45:12;;;;;;;21.50;11.50;;;6.20;99.90;;;;;;5029713;28;20041;-46
2022/11/24 12:48:02;;;;;;;22.88;11.27;;;6.20;99.90;;;;;;5029979;28;20096;-49
2022/11/24 12:50:31;;;;;;;24.20;11.48;;;6.20;99.90;;;;;;5030846;28;20049;-46
2022/11/24 12:53:04;;;;;;;22.55;12.52;;;6.10;99.90;;;;;;5029801;28;20483;-47
2022/11/24 12:55:32;;;;;;;20.23;11.93;;;6.10;99.90;;;;;;5030261;28;20088;-49
2022/11/24 12:58:12;;;;;;;25.92;13.98;;;6.20;99.90;;;;;;5030911;28;20498;-46
2022/11/24 13:00:51;;;;;;;22.20;12.52;;;6.20;99.90;;;;;;5030900;28;20451;-46
2022/11/24 13:03:21;;;;;;;25.20;13.45;;;6.30;99.90;;;;;;5029731;28;20034;-47
2022/11/24 13:06:16;;;;;;;25.02;11.18;;;6.30;99.90;;;;;;5013051;28;20076;-46
2022/11/24 13:08:44;;;;;;;24.02;12.10;;;6.40;99.90;;;;;;5017168;28;20049;-47
2022/11/24 13:11:19;;;;;;;;;;;6.40;99.90;;;;;;5031160;28;20441;-47
2022/11/24 13:13:58;;;;;;;21.58;11.80;;;6.40;99.90;;;;;;5030605;28;19921;-48
2022/11/24 13:16:26;;;;;;;16.38;8.68;;;6.30;99.90;;;;;;5029297;28;20037;-47
2022/11/24 13:19:13;;;;;;;17.77;10.27;;;6.30;99.90;;;;;;5043279;28;20041;-47